Details for FedEx at LFPG




Go Back


Latest METAR
Local Time

LFPG 221730Z 07005KT 9999 -SHRA FEW035CB FEW053TCU BKN081 18/13 Q1015 RETSRA TEMPO VRB15G30KT 2000 TSRA

22/05/2018, 19:57:30

Description
Results
FedEx Logo
Number of Pilots based at LFPG
0 Pilots Based here
Number of FedEx Flights Departed from LFPG
0 Flights Departed
Number of FedEx Flights Arrived at LFPG
1 Flights Arrived
Number of FedEx Schedules Departing from LFPG
97 Schedules
Number of FedEx Schedules Arriving at LFPG
99 Schedules
Number of FedEx Schedules Departing from LFPG availible today
21 Schedules Today
Number of FedEx Schedules Arriving at LFPG availible today
23 Schedules Today
Average Landing Rate at LFPG
-229 fpm
FedEx Average Landing Rate at LFPG
-391 fpm
Total Fuel Purchased at LFPG by FedEx
0.00 kgs / 0.00 lbs

Pilots Based at LFPG


Pilot ID
Pilot Name
Pilot Rank
No. of Flights
No. of Flying Hours
There are no pilots assigned to this hub!   Will you be the first?
Content